Time;durP1;ratioP1;P1;durP2;ratioP2;P2;SDS_P1;SDS_P2;PMS_P1;PMS_P2;Temp;Humidity;BMP_temperature;BMP_pressure;BME280_temperature;BME280_humidity;BME280_pressure;Samples;Min_cycle;Max_cycle;Signal;HPM_P1;HPM_P2
2022/03/02 00:00:54;;;;;;;;;;;17.30;37.80;;;;;;5064911;28;43465;-77
2022/03/02 00:03:19;;;;;;;;;;;17.30;37.90;;;;;;5064416;28;43031;-77
2022/03/02 00:05:45;;;;;;;;;;;17.30;37.70;;;;;;5064366;28;42952;-78
2022/03/02 00:08:10;;;;;;;;;;;17.30;38.30;;;;;;5064577;28;42954;-78
2022/03/02 00:10:36;;;;;;;;;;;17.30;37.70;;;;;;5064567;28;43241;-77
2022/03/02 00:13:01;;;;;;;;;;;17.30;37.90;;;;;;5064240;28;42967;-79
2022/03/02 00:15:29;;;;;;;;;;;17.30;37.80;;;;;;5064620;28;42938;-82
2022/03/02 00:17:56;;;;;;;;;;;17.30;38.00;;;;;;5063420;28;42799;-76
2022/03/02 00:20:22;;;;;;;;;;;17.30;37.90;;;;;;5079696;28;43127;-77
2022/03/02 00:22:47;;;;;;;;;;;17.30;37.40;;;;;;5065235;28;42941;-76
2022/03/02 00:25:13;;;;;;;;;;;17.30;37.90;;;;;;5064662;28;43016;-81
2022/03/02 00:27:39;;;;;;;;;;;17.30;38.00;;;;;;5080270;28;42975;-77
2022/03/02 00:30:05;;;;;;;;;;;17.30;37.90;;;;;;5064230;28;42948;-77
2022/03/02 00:32:31;;;;;;;;;;;17.30;37.70;;;;;;5064240;28;42992;-76
2022/03/02 00:34:56;;;;;;;;;;;17.30;37.50;;;;;;5064527;28;42984;-76
2022/03/02 00:37:22;;;;;;;;;;;17.30;37.90;;;;;;5063736;28;43010;-77
2022/03/02 00:39:47;;;;;;;;;;;17.20;37.50;;;;;;5064312;28;43200;-77
2022/03/02 00:42:13;;;;;;;;;;;17.30;37.90;;;;;;5064570;28;42971;-77
2022/03/02 00:44:38;;;;;;;;;;;17.30;37.80;;;;;;5064772;28;43641;-77
2022/03/02 00:47:04;;;;;;;;;;;17.30;38.10;;;;;;5064456;28;42932;-76
2022/03/02 00:49:32;;;;;;;;;;;17.20;38.10;;;;;;5063619;28;43948;-77
2022/03/02 00:51:57;;;;;;;;;;;17.20;37.90;;;;;;5063945;28;42831;-76
2022/03/02 00:54:23;;;;;;;;;;;17.20;38.10;;;;;;5064194;28;42921;-77
2022/03/02 00:56:49;;;;;;;;;;;17.20;38.10;;;;;;5063043;28;43013;-76
2022/03/02 00:59:15;;;;;;;;;;;17.20;38.20;;;;;;5064528;28;43040;-77
2022/03/02 01:01:40;;;;;;;;;;;17.20;38.10;;;;;;5054051;28;43045;-77
2022/03/02 01:04:07;;;;;;;;;;;17.20;38.30;;;;;;5063159;28;43351;-76
2022/03/02 01:06:33;;;;;;;;;;;17.10;38.60;;;;;;5063626;28;43020;-78
2022/03/02 01:08:58;;;;;;;;;;;17.20;38.70;;;;;;5064277;28;42901;-76
2022/03/02 01:11:24;;;;;;;;;;;17.10;38.50;;;;;;5064485;28;42846;-77
2022/03/02 01:13:49;;;;;;;;;;;17.20;38.40;;;;;;5064250;28;43635;-77
2022/03/02 01:16:15;;;;;;;;;;;17.20;38.40;;;;;;5064275;28;42889;-76
2022/03/02 01:18:41;;;;;;;;;;;17.20;38.20;;;;;;5064088;28;43766;-77
2022/03/02 01:21:06;;;;;;;;;;;17.20;38.40;;;;;;5063689;28;42819;-77
2022/03/02 01:23:32;;;;;;;;;;;17.20;38.40;;;;;;5064080;28;42921;-76
2022/03/02 01:25:58;;;;;;;;;;;17.30;38.60;;;;;;5063723;28;42834;-77
2022/03/02 01:28:23;;;;;;;;;;;17.20;38.40;;;;;;5064092;28;43967;-77
2022/03/02 01:30:49;;;;;;;;;;;17.20;38.30;;;;;;5067685;28;42882;-76
2022/03/02 01:33:14;;;;;;;;;;;17.20;38.40;;;;;;5067450;28;43565;-77
2022/03/02 01:35:40;;;;;;;;;;;17.20;38.60;;;;;;5067755;28;43246;-76
2022/03/02 01:38:06;;;;;;;;;;;17.20;38.30;;;;;;5066686;28;42952;-77
2022/03/02 01:40:31;;;;;;;;;;;17.20;38.60;;;;;;5066713;28;43138;-76
2022/03/02 01:42:57;;;;;;;;;;;17.20;38.20;;;;;;5067243;28;43099;-76
2022/03/02 01:45:22;;;;;;;;;;;17.20;38.60;;;;;;5067949;28;42971;-77
2022/03/02 01:47:48;;;;;;;;;;;17.20;37.80;;;;;;5067471;28;43666;-76
2022/03/02 01:50:14;;;;;;;;;;;17.20;38.30;;;;;;5067976;28;43003;-78
2022/03/02 01:52:40;;;;;;;;;;;17.20;38.60;;;;;;5068705;28;42814;-78
2022/03/02 01:55:06;;;;;;;;;;;17.20;37.90;;;;;;5067571;28;42975;-77
2022/03/02 01:57:32;;;;;;;;;;;17.20;38.60;;;;;;5067032;28;43063;-76
2022/03/02 01:59:58;;;;;;;;;;;17.20;38.40;;;;;;5048440;28;42920;-78
2022/03/02 02:02:23;;;;;;;;;;;17.20;38.40;;;;;;5046475;28;43670;-77
2022/03/02 02:04:49;;;;;;;;;;;17.20;38.50;;;;;;5045609;28;42913;-77
2022/03/02 02:07:14;;;;;;;;;;;17.20;38.50;;;;;;5046046;28;44051;-77
2022/03/02 02:09:40;;;;;;;;;;;17.20;38.60;;;;;;5046547;28;42980;-77
2022/03/02 02:12:05;;;;;;;;;;;17.20;38.80;;;;;;5045364;28;43081;-76
2022/03/02 02:14:31;;;;;;;;;;;17.10;37.90;;;;;;5045624;28;42945;-76
2022/03/02 02:16:56;;;;;;;;;;;17.20;38.70;;;;;;5045449;28;43586;-77
2022/03/02 02:19:22;;;;;;;;;;;17.10;38.60;;;;;;5046619;28;43133;-76
2022/03/02 02:21:48;;;;;;;;;;;17.20;38.60;;;;;;5045595;28;43591;-76
2022/03/02 02:24:14;;;;;;;;;;;17.10;38.60;;;;;;5044981;28;43081;-76
2022/03/02 02:26:40;;;;;;;;;;;17.20;38.60;;;;;;5045323;28;44047;-76
2022/03/02 02:29:06;;;;;;;;;;;17.10;38.10;;;;;;5046140;28;42798;-76
2022/03/02 02:31:31;;;;;;;;;;;17.10;38.60;;;;;;5045616;28;42998;-76
2022/03/02 02:33:57;;;;;;;;;;;17.20;38.60;;;;;;5045954;28;42859;-76
2022/03/02 02:36:22;;;;;;;;;;;17.10;38.70;;;;;;5045996;28;43384;-77
2022/03/02 02:38:48;;;;;;;;;;;17.10;39.20;;;;;;5045216;28;43076;-77
2022/03/02 02:41:16;;;;;;;;;;;17.10;38.70;;;;;;5043043;28;43057;-76
2022/03/02 02:43:42;;;;;;;;;;;17.10;38.10;;;;;;5045843;28;42987;-76
2022/03/02 02:46:09;;;;;;;;;;;17.10;38.70;;;;;;5045079;28;43349;-76
2022/03/02 02:48:34;;;;;;;;;;;17.10;38.70;;;;;;5045641;28;42931;-76
2022/03/02 02:51:00;;;;;;;;;;;17.20;38.80;;;;;;5045385;28;43913;-77
2022/03/02 02:53:25;;;;;;;;;;;17.10;39.00;;;;;;5045182;28;42936;-76
2022/03/02 02:55:52;;;;;;;;;;;17.20;39.00;;;;;;5045237;28;42888;-77
2022/03/02 02:58:18;;;;;;;;;;;17.10;38.90;;;;;;5045853;28;43123;-76
2022/03/02 03:00:45;;;;;;;;;;;17.10;38.80;;;;;;5045478;28;43048;-76
2022/03/02 03:03:11;;;;;;;;;;;17.10;38.80;;;;;;5044866;28;42875;-76
2022/03/02 03:05:36;;;;;;;;;;;17.10;38.90;;;;;;5045604;28;43521;-77
2022/03/02 03:08:03;;;;;;;;;;;17.10;38.90;;;;;;5045793;28;42936;-76
2022/03/02 03:10:29;;;;;;;;;;;17.10;38.80;;;;;;5045393;28;43557;-76
2022/03/02 03:12:54;;;;;;;;;;;17.10;39.20;;;;;;5044733;28;42807;-76
2022/03/02 03:15:20;;;;;;;;;;;17.10;39.00;;;;;;5045210;28;43010;-76
2022/03/02 03:17:46;;;;;;;;;;;17.10;39.00;;;;;;5044601;28;42907;-76
2022/03/02 03:20:13;;;;;;;;;;;17.10;38.90;;;;;;5044489;28;42944;-76
2022/03/02 03:22:38;;;;;;;;;;;17.10;39.00;;;;;;5045062;28;42962;-76
2022/03/02 03:25:04;;;;;;;;;;;17.10;39.10;;;;;;5044711;28;42918;-77
2022/03/02 03:27:30;;;;;;;;;;;17.10;39.00;;;;;;5044125;28;43385;-76
2022/03/02 03:29:56;;;;;;;;;;;17.10;39.10;;;;;;5045182;28;43498;-76
2022/03/02 03:32:22;;;;;;;;;;;17.10;39.20;;;;;;5044748;28;42983;-75
2022/03/02 03:34:47;;;;;;;;;;;17.10;39.10;;;;;;5059381;28;44344;-75
2022/03/02 03:37:13;;;;;;;;;;;17.10;39.30;;;;;;5044505;28;42856;-76
2022/03/02 03:39:38;;;;;;;;;;;17.20;39.40;;;;;;5043969;28;43008;-77
2022/03/02 03:42:04;;;;;;;;;;;17.10;39.30;;;;;;5043908;28;43254;-76
2022/03/02 03:44:30;;;;;;;;;;;17.10;39.30;;;;;;5052985;28;42982;-76
2022/03/02 03:46:55;;;;;;;;;;;17.10;39.30;;;;;;5063323;28;42977;-76
2022/03/02 03:49:21;;;;;;;;;;;17.10;39.30;;;;;;5064400;28;43787;-76
2022/03/02 03:51:46;;;;;;;;;;;17.10;39.40;;;;;;5064405;28;42944;-77
2022/03/02 03:54:12;;;;;;;;;;;17.10;39.50;;;;;;5063835;28;43049;-76
2022/03/02 03:56:38;;;;;;;;;;;17.10;39.50;;;;;;5064157;28;43051;-76
2022/03/02 03:59:04;;;;;;;;;;;17.10;38.90;;;;;;5064488;28;43047;-76
2022/03/02 04:01:29;;;;;;;;;;;17.10;39.40;;;;;;5065233;28;42902;-76
2022/03/02 04:03:55;;;;;;;;;;;17.10;39.40;;;;;;5064163;28;42898;-76
2022/03/02 04:06:21;;;;;;;;;;;17.10;39.40;;;;;;5064335;28;42929;-77
2022/03/02 04:08:46;;;;;;;;;;;17.10;39.50;;;;;;5063599;28;43696;-76
2022/03/02 04:11:12;;;;;;;;;;;17.10;39.60;;;;;;5063598;28;42949;-76
2022/03/02 04:13:38;;;;;;;;;;;17.10;39.50;;;;;;5064862;28;42756;-75
2022/03/02 04:16:04;;;;;;;;;;;17.00;39.50;;;;;;5064512;28;43117;-76
2022/03/02 04:18:31;;;;;;;;;;;17.10;39.50;;;;;;5064087;28;43528;-76
2022/03/02 04:20:57;;;;;;;;;;;17.00;39.00;;;;;;5063022;28;42799;-76
2022/03/02 04:23:23;;;;;;;;;;;17.10;39.50;;;;;;5064505;28;43944;-76
2022/03/02 04:25:49;;;;;;;;;;;17.10;39.70;;;;;;5063645;28;43196;-76
2022/03/02 04:28:14;;;;;;;;;;;17.10;39.60;;;;;;5062539;28;43581;-77
2022/03/02 04:30:40;;;;;;;;;;;17.10;39.70;;;;;;5064314;28;42887;-76
2022/03/02 04:33:06;;;;;;;;;;;17.10;39.60;;;;;;5064264;28;43448;-76
2022/03/02 04:35:32;;;;;;;;;;;17.10;39.60;;;;;;5063253;28;43027;-77
2022/03/02 04:37:58;;;;;;;;;;;17.10;39.60;;;;;;5063575;28;43116;-76
2022/03/02 04:40:23;;;;;;;;;;;17.10;39.70;;;;;;5063527;28;42878;-75
2022/03/02 04:42:49;;;;;;;;;;;17.00;39.60;;;;;;5063397;28;43031;-76
2022/03/02 04:45:15;;;;;;;;;;;17.10;39.60;;;;;;5063690;28;42903;-76
2022/03/02 04:47:41;;;;;;;;;;;17.10;39.80;;;;;;5062320;28;42952;-76
2022/03/02 04:50:07;;;;;;;;;;;17.00;39.70;;;;;;5063505;28;42950;-77
2022/03/02 04:52:33;;;;;;;;;;;17.10;39.70;;;;;;5063184;28;43117;-76
2022/03/02 04:55:07;;;;;;;;;;;17.10;39.80;;;;;;5063649;28;42967;-75
2022/03/02 04:57:37;;;;;;;;;;;17.10;39.70;;;;;;5063598;28;43575;-76
2022/03/02 05:00:05;;;;;;;;;;;17.00;39.70;;;;;;5063194;28;42968;-76
2022/03/02 05:02:31;;;;;;;;;;;17.00;39.70;;;;;;5064235;28;42905;-76
2022/03/02 05:04:56;;;;;;;;;;;17.00;39.70;;;;;;5066399;28;42912;-75
2022/03/02 05:07:22;;;;;;;;;;;17.00;39.80;;;;;;5067408;28;43482;-76
2022/03/02 05:09:47;;;;;;;;;;;17.00;39.80;;;;;;5066433;28;42992;-75
2022/03/02 05:12:13;;;;;;;;;;;17.00;39.80;;;;;;5067416;28;43034;-76
2022/03/02 05:14:38;;;;;;;;;;;17.10;39.90;;;;;;5066878;28;43040;-75
2022/03/02 05:17:04;;;;;;;;;;;17.10;40.00;;;;;;5065488;28;43033;-75
2022/03/02 05:19:29;;;;;;;;;;;17.00;39.80;;;;;;5063520;28;43123;-76
2022/03/02 05:21:55;;;;;;;;;;;17.10;40.10;;;;;;5066481;28;43480;-76
2022/03/02 05:24:20;;;;;;;;;;;17.10;40.20;;;;;;5065615;28;43279;-75
2022/03/02 05:26:46;;;;;;;;;;;17.10;40.20;;;;;;5065408;28;43044;-76
2022/03/02 05:29:11;;;;;;;;;;;17.10;40.20;;;;;;5066347;28;42926;-76
2022/03/02 05:31:37;;;;;;;;;;;17.10;40.20;;;;;;5065292;28;43921;-78
2022/03/02 05:34:02;;;;;;;;;;;17.10;40.20;;;;;;5065745;28;43024;-76
2022/03/02 05:36:28;;;;;;;;;;;17.10;40.30;;;;;;5064082;28;42909;-77
2022/03/02 05:38:54;;;;;;;;;;;17.10;40.40;;;;;;5065662;28;43017;-77
2022/03/02 05:41:22;;;;;;;;;;;17.20;40.50;;;;;;5064972;28;43396;-77
2022/03/02 05:43:48;;;;;;;;;;;17.10;40.30;;;;;;5063989;28;43184;-77
2022/03/02 05:46:13;;;;;;;;;;;17.10;40.40;;;;;;5064142;28;42858;-76
2022/03/02 05:48:39;;;;;;;;;;;17.10;40.40;;;;;;5065910;28;43198;-76
2022/03/02 05:51:05;;;;;;;;;;;17.10;40.40;;;;;;5064114;28;44126;-76
2022/03/02 05:53:30;;;;;;;;;;;17.10;39.90;;;;;;5065985;28;42894;-77
2022/03/02 05:55:56;;;;;;;;;;;17.10;40.20;;;;;;5065923;28;42941;-76
2022/03/02 05:58:21;;;;;;;;;;;17.10;40.20;;;;;;5063398;28;43021;-76
2022/03/02 06:00:47;;;;;;;;;;;17.10;40.10;;;;;;5065318;28;43534;-75
2022/03/02 06:03:13;;;;;;;;;;;17.10;39.20;;;;;;5066089;28;42984;-75
2022/03/02 06:05:39;;;;;;;;;;;17.20;39.40;;;;;;5066186;28;42999;-76
2022/03/02 06:08:07;;;;;;;;;;;17.20;39.10;;;;;;5065546;28;43032;-76
2022/03/02 06:10:33;;;;;;;;;;;17.20;39.10;;;;;;5064830;28;43567;-75
2022/03/02 06:12:59;;;;;;;;;;;17.10;38.40;;;;;;5065429;28;42873;-80
2022/03/02 06:15:25;;;;;;;;;;;17.10;38.70;;;;;;5065245;28;43869;-76
2022/03/02 06:17:50;;;;;;;;;;;17.10;38.60;;;;;;5063792;28;44101;-76
2022/03/02 06:20:16;;;;;;;;;;;17.00;38.50;;;;;;5064603;28;43530;-76
2022/03/02 06:22:42;;;;;;;;;;;17.00;38.10;;;;;;5063925;28;42882;-75
2022/03/02 06:25:08;;;;;;;;;;;17.10;38.20;;;;;;5065008;28;44294;-76
2022/03/02 06:27:34;;;;;;;;;;;17.10;38.10;;;;;;5064881;28;42997;-77
2022/03/02 06:30:00;;;;;;;;;;;17.10;38.30;;;;;;5065971;28;43559;-75
2022/03/02 06:32:26;;;;;;;;;;;17.00;37.50;;;;;;5065310;28;42882;-76
2022/03/02 06:34:51;;;;;;;;;;;17.00;37.30;;;;;;5065866;28;43711;-75
2022/03/02 06:37:17;;;;;;;;;;;17.00;37.90;;;;;;5064708;28;42881;-75
2022/03/02 06:39:42;;;;;;;;;;;17.10;37.70;;;;;;5066204;28;43032;-75
2022/03/02 06:42:14;;;;;;;;;;;17.00;35.20;;;;;;5066161;28;43029;-74
2022/03/02 06:44:49;;;;;;;;;;;16.00;32.30;;;;;;5062774;28;43028;-75
2022/03/02 06:47:17;;;;;;;;;;;15.30;31.90;;;;;;5065571;28;42905;-73
2022/03/02 06:49:48;;;;;;;;;;;14.90;31.10;;;;;;5065734;28;42981;-76
2022/03/02 06:52:17;;;;;;;;;;;14.10;30.30;;;;;;5065880;28;43215;-76
2022/03/02 06:54:43;;;;;;;;;;;13.80;30.00;;;;;;5065827;28;42918;-76
2022/03/02 06:57:12;;;;;;;;;;;13.70;30.60;;;;;;5064460;28;43190;-76
2022/03/02 06:59:39;;;;;;;;;;;13.60;30.50;;;;;;5063651;28;43377;-76
2022/03/02 07:02:06;;;;;;;;;;;13.40;30.50;;;;;;5064427;28;42890;-76
2022/03/02 07:04:32;;;;;;;;;;;13.30;30.60;;;;;;5064992;28;43671;-76
2022/03/02 07:06:58;;;;;;;;;;;13.40;30.70;;;;;;5065382;28;42925;-76
2022/03/02 07:09:24;;;;;;;;;;;13.60;30.90;;;;;;5062864;28;42947;-77
2022/03/02 07:11:50;;;;;;;;;;;13.50;30.70;;;;;;5065428;28;42891;-76
2022/03/02 07:14:16;;;;;;;;;;;13.20;30.50;;;;;;5065548;28;42963;-76
2022/03/02 07:16:42;;;;;;;;;;;13.20;30.20;;;;;;5065473;28;43173;-76
2022/03/02 07:19:08;;;;;;;;;;;13.20;30.90;;;;;;5066100;28;43493;-76
2022/03/02 07:21:34;;;;;;;;;;;13.30;30.40;;;;;;5063921;28;42976;-76
2022/03/02 07:24:11;;;;;;;;;;;13.20;30.20;;;;;;5065563;28;42878;-76
2022/03/02 07:26:38;;;;;;;;;;;13.20;30.60;;;;;;5064827;28;42935;-76
2022/03/02 07:29:05;;;;;;;;;;;13.30;30.10;;;;;;5064530;28;43660;-76
2022/03/02 07:31:32;;;;;;;;;;;13.30;30.10;;;;;;5065165;28;42953;-78
2022/03/02 07:33:59;;;;;;;;;;;13.40;30.70;;;;;;5065267;28;43783;-76
2022/03/02 07:36:25;;;;;;;;;;;13.30;30.70;;;;;;5065597;28;42889;-79
2022/03/02 07:38:51;;;;;;;;;;;13.30;30.50;;;;;;5063869;28;42985;-76
2022/03/02 07:41:16;;;;;;;;;;;14.20;30.70;;;;;;5063967;28;42958;-74
2022/03/02 07:43:42;;;;;;;;;;;13.90;31.40;;;;;;5064553;28;43493;-76
2022/03/02 07:46:12;;;;;;;;;;;13.70;30.40;;;;;;5065246;28;43082;-76
2022/03/02 07:48:38;;;;;;;;;;;13.70;30.90;;;;;;5057443;28;43831;-76
2022/03/02 07:51:04;;;;;;;;;;;13.50;30.80;;;;;;5045259;28;43045;-76
2022/03/02 07:53:50;;;;;;;;;;;13.60;30.80;;;;;;5044741;28;43244;-76
2022/03/02 07:56:16;;;;;;;;;;;13.60;30.60;;;;;;5044271;28;43136;-76
2022/03/02 07:58:42;;;;;;;;;;;13.70;30.70;;;;;;5049444;28;44014;-76
2022/03/02 08:01:08;;;;;;;;;;;13.90;31.30;;;;;;5063821;28;42942;-76
2022/03/02 08:03:40;;;;;;;;;;;13.80;30.80;;;;;;5064926;28;43018;-78
2022/03/02 08:06:06;;;;;;;;;;;13.80;30.80;;;;;;5050382;28;43139;-76
2022/03/02 08:08:34;;;;;;;;;;;13.80;30.20;;;;;;5062718;28;43099;-76
2022/03/02 08:11:00;;;;;;;;;;;13.70;30.10;;;;;;5063228;28;42914;-75
2022/03/02 08:13:28;;;;;;;;;;;13.80;30.50;;;;;;5063439;28;42965;-77
2022/03/02 08:15:54;;;;;;;;;;;14.00;30.50;;;;;;5063895;28;43048;-76
2022/03/02 08:18:19;;;;;;;;;;;14.00;29.60;;;;;;5062632;28;43626;-77
2022/03/02 08:20:47;;;;;;;;;;;14.00;29.40;;;;;;5063338;28;43105;-78
2022/03/02 08:23:13;;;;;;;;;;;14.00;29.70;;;;;;5064331;28;43609;-75
2022/03/02 08:25:39;;;;;;;;;;;14.00;29.60;;;;;;5064577;28;42959;-75
2022/03/02 08:28:09;;;;;;;;;;;14.00;29.70;;;;;;5064510;28;42873;-75
2022/03/02 08:30:35;;;;;;;;;;;14.10;29.50;;;;;;5064038;28;42818;-76
2022/03/02 08:33:02;;;;;;;;;;;14.10;29.40;;;;;;5064087;28;43859;-77
2022/03/02 08:35:30;;;;;;;;;;;13.90;29.10;;;;;;5064078;28;42802;-75
2022/03/02 08:37:56;;;;;;;;;;;14.00;29.50;;;;;;5064434;28;43597;-76
2022/03/02 08:40:21;;;;;;;;;;;14.00;29.10;;;;;;5066247;28;43355;-75
2022/03/02 08:42:49;;;;;;;;;;;14.00;29.30;;;;;;5068107;28;43891;-76
2022/03/02 08:45:15;;;;;;;;;;;14.10;29.30;;;;;;5067802;28;43005;-76
2022/03/02 08:47:40;;;;;;;;;;;14.00;29.30;;;;;;5067895;28;43277;-77
2022/03/02 08:50:06;;;;;;;;;;;14.00;29.70;;;;;;5067764;28;42923;-76
2022/03/02 08:52:33;;;;;;;;;;;14.00;29.60;;;;;;5067750;28;43324;-76
2022/03/02 08:55:00;;;;;;;;;;;14.00;29.40;;;;;;5066951;28;43003;-76
2022/03/02 08:57:26;;;;;;;;;;;14.00;29.10;;;;;;5066796;28;44486;-76
2022/03/02 08:59:53;;;;;;;;;;;14.00;29.10;;;;;;5067244;28;43352;-76
2022/03/02 09:02:19;;;;;;;;;;;13.90;29.50;;;;;;5067176;28;42850;-76
2022/03/02 09:04:46;;;;;;;;;;;14.00;29.30;;;;;;5069618;28;42776;-77
2022/03/02 09:07:18;;;;;;;;;;;14.10;29.40;;;;;;5068225;28;43073;-76
2022/03/02 09:09:44;;;;;;;;;;;14.10;29.30;;;;;;5065876;28;43280;-77
2022/03/02 09:12:10;;;;;;;;;;;13.80;29.30;;;;;;5066058;28;43644;-78
2022/03/02 09:14:37;;;;;;;;;;;14.50;30.80;;;;;;5067476;28;42968;-76
2022/03/02 09:17:02;;;;;;;;;;;14.50;30.60;;;;;;5067259;28;43478;-75
2022/03/02 09:19:29;;;;;;;;;;;14.40;30.00;;;;;;5068069;28;43428;-75
2022/03/02 09:21:56;;;;;;;;;;;14.40;30.00;;;;;;5066817;28;44290;-76
2022/03/02 09:24:22;;;;;;;;;;;14.40;30.00;;;;;;5067078;28;43250;-77
2022/03/02 09:26:48;;;;;;;;;;;14.20;30.00;;;;;;5067725;28;44449;-75
2022/03/02 09:29:15;;;;;;;;;;;14.30;30.00;;;;;;5064320;28;43015;-75
2022/03/02 09:31:44;;;;;;;;;;;14.30;30.00;;;;;;5066549;28;44373;-75
2022/03/02 09:34:12;;;;;;;;;;;14.40;30.10;;;;;;5064069;28;42839;-75
2022/03/02 09:36:38;;;;;;;;;;;14.40;29.90;;;;;;5066861;28;43749;-76
2022/03/02 09:39:07;;;;;;;;;;;14.50;30.70;;;;;;5066859;28;43068;-76
2022/03/02 09:41:51;;;;;;;;;;;14.50;30.00;;;;;;5063097;28;43351;-77
2022/03/02 09:44:19;;;;;;;;;;;14.80;30.50;;;;;;5061635;28;43265;-77
2022/03/02 09:46:49;;;;;;;;;;;14.80;30.00;;;;;;5064890;28;43147;-78
2022/03/02 09:49:19;;;;;;;;;;;14.80;29.80;;;;;;5064776;28;43097;-78
2022/03/02 09:51:49;;;;;;;;;;;14.90;30.00;;;;;;5064424;28;42976;-78
2022/03/02 09:54:16;;;;;;;;;;;15.00;30.60;;;;;;5065574;28;42858;-78
2022/03/02 09:56:41;;;;;;;;;;;15.10;30.90;;;;;;5066183;28;42980;-78
2022/03/02 09:59:08;;;;;;;;;;;15.20;30.90;;;;;;5066529;28;42921;-80
2022/03/02 10:01:34;;;;;;;;;;;15.10;30.30;;;;;;5066070;28;43856;-78
2022/03/02 10:04:06;;;;;;;;;;;15.20;31.00;;;;;;5066786;28;43021;-78
2022/03/02 10:06:32;;;;;;;;;;;15.20;30.50;;;;;;5064703;28;44487;-78
2022/03/02 10:09:01;;;;;;;;;;;15.30;31.10;;;;;;5066759;28;42939;-78
2022/03/02 10:11:27;;;;;;;;;;;15.20;30.40;;;;;;5066107;28;42950;-78
2022/03/02 10:13:55;;;;;;;;;;;15.20;30.40;;;;;;5064473;28;42941;-83
2022/03/02 10:16:22;;;;;;;;;;;15.10;30.20;;;;;;5066202;28;42990;-74
2022/03/02 10:18:57;;;;;;;;;;;15.30;31.10;;;;;;5063464;28;42892;-76
2022/03/02 10:21:32;;;;;;;;;;;15.30;30.80;;;;;;5066054;28;43582;-74
2022/03/02 10:23:59;;;;;;;;;;;15.40;31.00;;;;;;5066192;28;42795;-75
2022/03/02 10:26:26;;;;;;;;;;;15.10;30.60;;;;;;5065258;28;43926;-75
2022/03/02 10:28:56;;;;;;;;;;;15.10;31.20;;;;;;5066108;28;42958;-74
2022/03/02 10:31:28;;;;;;;;;;;15.00;30.80;;;;;;5066147;28;43680;-73
2022/03/02 10:34:00;;;;;;;;;;;15.00;30.90;;;;;;5066005;28;42983;-73
2022/03/02 10:36:27;;;;;;;;;;;15.10;31.20;;;;;;5064978;28;42906;-74
2022/03/02 10:38:58;;;;;;;;;;;15.20;31.70;;;;;;5065227;28;42977;-75
2022/03/02 10:41:25;;;;;;;;;;;15.20;31.60;;;;;;5065559;28;43947;-73
2022/03/02 10:43:57;;;;;;;;;;;15.20;31.80;;;;;;5065798;28;42970;-73
2022/03/02 10:46:23;;;;;;;;;;;15.30;31.80;;;;;;5065596;28;42981;-73
2022/03/02 10:49:02;;;;;;;;;;;15.30;31.90;;;;;;5065934;28;42953;-73
2022/03/02 10:51:28;;;;;;;;;;;15.30;31.40;;;;;;5063671;28;44987;-74
2022/03/02 10:53:56;;;;;;;;;;;15.30;31.90;;;;;;5064379;28;42858;-73
2022/03/02 10:56:25;;;;;;;;;;;15.30;32.00;;;;;;5064688;28;43522;-73
2022/03/02 10:58:51;;;;;;;;;;;15.40;32.10;;;;;;5065377;28;42994;-73
2022/03/02 11:01:18;;;;;;;;;;;15.30;32.10;;;;;;5064596;28;43190;-74
2022/03/02 11:03:44;;;;;;;;;;;15.30;32.20;;;;;;5065592;28;42937;-74
2022/03/02 11:06:11;;;;;;;;;;;15.30;32.10;;;;;;5064871;28;43100;-74
2022/03/02 11:08:37;;;;;;;;;;;15.30;32.20;;;;;;5065464;28;42839;-73
2022/03/02 11:11:05;;;;;;;;;;;15.40;32.10;;;;;;5066107;28;43603;-73
2022/03/02 11:13:31;;;;;;;;;;;15.40;32.20;;;;;;5065913;28;42794;-73
2022/03/02 11:15:58;;;;;;;;;;;15.40;32.30;;;;;;5065920;28;43125;-74
2022/03/02 11:18:33;;;;;;;;;;;15.50;32.50;;;;;;5065502;28;42909;-76
2022/03/02 11:21:04;;;;;;;;;;;15.50;32.40;;;;;;5064782;28;43794;-75
2022/03/02 11:23:47;;;;;;;;;;;15.40;32.30;;;;;;5064940;28;43618;-73
2022/03/02 11:26:16;;;;;;;;;;;15.40;32.30;;;;;;5061907;28;43065;-73
2022/03/02 11:28:49;;;;;;;;;;;15.30;31.90;;;;;;5064908;28;42848;-75
2022/03/02 11:31:26;;;;;;;;;;;15.40;32.30;;;;;;5063027;28;42953;-74
2022/03/02 11:34:12;;;;;;;;;;;15.50;32.40;;;;;;5062192;28;43029;-73
2022/03/02 11:36:38;;;;;;;;;;;15.50;32.40;;;;;;5062582;28;43318;-73
2022/03/02 11:39:05;;;;;;;;;;;15.50;32.50;;;;;;5056117;28;43025;-75
2022/03/02 11:41:38;;;;;;;;;;;15.50;32.50;;;;;;5060294;28;43411;-73
2022/03/02 11:44:23;;;;;;;;;;;15.50;32.50;;;;;;5062683;28;42960;-76
2022/03/02 11:46:49;;;;;;;;;;;15.60;32.50;;;;;;5063869;28;43069;-76
2022/03/02 11:49:14;;;;;;;;;;;15.50;32.00;;;;;;5065191;28;42887;-76
2022/03/02 11:51:40;;;;;;;;;;;15.50;32.00;;;;;;5064973;28;43056;-76
2022/03/02 11:54:09;;;;;;;;;;;15.50;32.00;;;;;;5064889;28;42889;-76
2022/03/02 11:56:34;;;;;;;;;;;15.50;32.10;;;;;;5063966;28;43657;-77
2022/03/02 11:59:06;;;;;;;;;;;15.50;32.00;;;;;;5064373;28;43235;-77
2022/03/02 12:01:44;;;;;;;;;;;15.50;31.90;;;;;;5064406;28;43969;-76
2022/03/02 12:04:11;;;;;;;;;;;15.50;31.90;;;;;;5065049;28;43370;-75
2022/03/02 12:06:41;;;;;;;;;;;15.40;31.50;;;;;;5064992;28;42953;-76
2022/03/02 12:09:07;;;;;;;;;;;15.50;32.00;;;;;;5065087;28;42921;-76
2022/03/02 12:11:34;;;;;;;;;;;15.50;31.50;;;;;;5064401;28;42879;-76
2022/03/02 12:14:07;;;;;;;;;;;15.40;31.90;;;;;;5064590;28;42875;-76
2022/03/02 12:16:40;;;;;;;;;;;15.40;31.50;;;;;;5062945;28;43373;-77
2022/03/02 12:19:17;;;;;;;;;;;15.40;31.60;;;;;;5064845;28;43005;-75
2022/03/02 12:21:45;;;;;;;;;;;15.50;31.80;;;;;;5063426;28;64225;-76
2022/03/02 12:24:12;;;;;;;;;;;15.40;31.90;;;;;;5064726;28;42909;-77
2022/03/02 12:26:44;;;;;;;;;;;15.50;31.90;;;;;;5064724;28;42870;-76
2022/03/02 12:29:10;;;;;;;;;;;15.50;31.90;;;;;;5063738;28;43080;-76
2022/03/02 12:31:35;;;;;;;;;;;15.50;32.00;;;;;;5063954;28;43566;-76
2022/03/02 12:34:11;;;;;;;;;;;15.50;31.40;;;;;;5062678;28;43669;-75
2022/03/02 12:36:37;;;;;;;;;;;15.50;32.00;;;;;;5060357;28;43599;-76
2022/03/02 12:39:02;;;;;;;;;;;15.50;32.50;;;;;;5064153;28;42973;-77
2022/03/02 12:41:28;;;;;;;;;;;15.50;31.90;;;;;;5063726;28;43558;-76
2022/03/02 12:43:53;;;;;;;;;;;15.50;32.20;;;;;;5062343;28;43076;-76
2022/03/02 12:46:19;;;;;;;;;;;15.60;32.20;;;;;;5060842;28;42919;-78
2022/03/02 12:48:45;;;;;;;;;;;15.50;32.10;;;;;;5061607;28;43241;-75
2022/03/02 12:51:12;;;;;;;;;;;15.60;32.20;;;;;;5063640;28;42995;-75
2022/03/02 12:53:37;;;;;;;;;;;15.70;32.30;;;;;;5062015;28;42960;-74
2022/03/02 12:56:05;;;;;;;;;;;15.70;32.10;;;;;;5062665;28;43150;-74
2022/03/02 12:58:31;;;;;;;;;;;15.60;32.00;;;;;;5061833;28;43118;-74
2022/03/02 13:00:56;;;;;;;;;;;15.60;32.40;;;;;;5064559;28;42870;-76
2022/03/02 13:03:32;;;;;;;;;;;15.60;32.20;;;;;;5047293;28;42917;-74
2022/03/02 13:06:01;;;;;;;;;;;15.60;32.50;;;;;;5043237;28;42928;-74
2022/03/02 13:08:29;;;;;;;;;;;15.60;32.50;;;;;;5057917;28;43002;-74
2022/03/02 13:10:55;;;;;;;;;;;15.60;32.60;;;;;;5061540;28;43116;-74
2022/03/02 13:13:50;;;;;;;;;;;15.60;32.70;;;;;;5063598;28;42806;-73
2022/03/02 13:16:23;;;;;;;;;;;15.60;32.50;;;;;;5053810;28;42966;-74
2022/03/02 13:18:50;;;;;;;;;;;15.60;32.40;;;;;;5060182;28;43292;-74
2022/03/02 13:21:15;;;;;;;;;;;15.50;31.90;;;;;;5062323;28;44078;-74
2022/03/02 13:24:00;;;;;;;;;;;15.60;32.40;;;;;;5063395;28;42850;-73
2022/03/02 13:26:26;;;;;;;;;;;15.60;32.30;;;;;;5066810;28;43988;-73
2022/03/02 13:28:59;;;;;;;;;;;15.60;32.60;;;;;;5067467;28;42914;-73
2022/03/02 13:31:24;;;;;;;;;;;15.70;32.40;;;;;;5066462;28;42984;-74
2022/03/02 13:34:02;;;;;;;;;;;15.80;33.10;;;;;;5067396;28;43207;-76
2022/03/02 13:36:34;;;;;;;;;;;15.90;33.20;;;;;;5067281;28;43444;-74
2022/03/02 13:39:11;;;;;;;;;;;16.00;33.40;;;;;;5066929;28;43069;-72
2022/03/02 13:41:51;;;;;;;;;;;16.00;33.60;;;;;;5066964;28;42957;-73
2022/03/02 13:44:36;;;;;;;;;;;16.00;33.60;;;;;;5066324;28;42920;-75
2022/03/02 13:47:08;;;;;;;;;;;16.10;33.90;;;;;;5046979;28;42949;-73
2022/03/02 13:49:53;;;;;;;;;;;16.00;33.60;;;;;;5047304;28;42931;-73
2022/03/02 13:52:20;;;;;;;;;;;16.00;33.80;;;;;;5061471;28;43663;-73
2022/03/02 13:54:46;;;;;;;;;;;16.10;33.90;;;;;;5047355;28;42787;-73
2022/03/02 13:57:25;;;;;;;;;;;16.00;33.10;;;;;;5047080;28;42791;-74
2022/03/02 14:00:09;;;;;;;;;;;15.90;33.40;;;;;;5047131;28;42911;-73
2022/03/02 14:02:35;;;;;;;;;;;16.00;33.30;;;;;;5047176;28;42878;-74
2022/03/02 14:05:01;;;;;;;;;;;16.00;33.30;;;;;;5046519;28;42961;-73
2022/03/02 14:07:30;;;;;;;;;;;16.00;32.70;;;;;;5046304;28;42853;-73
2022/03/02 14:10:08;;;;;;;;;;;16.00;33.20;;;;;;5046237;28;42855;-73
2022/03/02 14:13:06;;;;;;;;;;;16.10;33.30;;;;;;5046079;28;43828;-74
2022/03/02 14:15:34;;;;;;;;;;;16.00;33.10;;;;;;5012748;28;43029;-73
2022/03/02 14:18:03;;;;;;;;;;;16.00;33.10;;;;;;5046883;28;42773;-73